Time;durP1;ratioP1;P1;durP2;ratioP2;P2;SDS_P1;SDS_P2;PMS_P1;PMS_P2;Temp;Humidity;BMP_temperature;BMP_pressure;BME280_temperature;BME280_humidity;BME280_pressure;Samples;Min_cycle;Max_cycle;Signal;HPM_P1;HPM_P2
2021/10/18 00:00:21;;;;;;;8.85;5.15;;;8.40;99.90;;;6.69;98.67;101860.00;2570851;30;136996;-38
2021/10/18 00:02:49;;;;;;;9.82;5.43;;;8.40;99.90;;;6.65;98.69;101869.47;2566427;30;139295;-38
2021/10/18 00:05:17;;;;;;;9.20;5.43;;;8.40;99.90;;;6.59;99.04;101870.09;2569210;30;137401;-38
2021/10/18 00:07:45;;;;;;;9.63;5.10;;;8.30;99.90;;;6.52;98.78;101869.06;2567341;30;139047;-38
2021/10/18 00:10:13;;;;;;;;;;;8.20;99.90;;;6.43;98.36;101869.00;2569273;30;137540;-38
2021/10/18 00:12:42;;;;;;;11.38;5.53;;;8.10;99.90;;;6.34;98.33;101861.81;2564911;30;139294;-38
2021/10/18 00:15:15;;;;;;;10.18;5.88;;;8.00;99.90;;;6.26;98.31;101854.50;2566580;30;137927;-38
2021/10/18 00:17:43;;;;;;;8.63;5.10;;;8.00;99.90;;;6.21;98.83;101859.53;2569342;30;138332;-38
2021/10/18 00:20:16;;;;;;;9.52;5.82;;;7.90;99.90;;;6.13;98.80;101859.47;2570629;30;136939;-38
2021/10/18 00:22:45;;;;;;;8.23;5.03;;;7.80;99.90;;;6.07;98.78;101860.94;2571115;30;137222;-38
2021/10/18 00:25:13;;;;;;;8.43;5.43;;;7.80;99.90;;;6.02;98.97;101866.84;2568178;30;137799;-38
2021/10/18 00:27:41;;;;;;;7.95;5.38;;;7.70;99.90;;;5.95;98.57;101863.00;2566841;30;137247;-38
2021/10/18 00:30:09;;;;;;;7.28;5.18;;;7.60;99.90;;;5.88;98.39;101865.50;2568396;30;137130;-38
2021/10/18 00:32:37;;;;;;;9.73;5.03;;;7.60;99.90;;;5.87;98.66;101871.06;2567790;30;138779;-38
2021/10/18 00:35:05;;;;;;;;;;;7.60;99.90;;;5.83;98.88;101866.97;2568187;30;138715;-38
2021/10/18 00:37:36;;;;;;;9.02;4.82;;;7.50;99.90;;;5.80;99.10;101862.72;2567916;30;139075;-38
2021/10/18 00:40:06;;;;;;;11.45;5.43;;;7.50;99.90;;;5.74;99.53;101866.06;2567027;30;137453;-38
2021/10/18 00:42:34;;;;;;;10.30;5.70;;;7.50;99.90;;;5.74;99.13;101860.63;2565565;30;139839;-38
2021/10/18 00:45:02;;;;;;;;;;;7.40;99.90;;;5.70;99.37;101867.38;2569189;30;137411;-38
2021/10/18 00:47:30;;;;;;;10.50;5.45;;;7.40;99.90;;;5.66;99.49;101864.09;2567703;30;137026;-38
2021/10/18 00:50:00;;;;;;;7.22;4.70;;;7.40;99.90;;;5.60;99.38;101867.44;2571113;30;137279;-38
2021/10/18 00:52:28;;;;;;;7.60;5.05;;;7.30;99.90;;;5.58;98.96;101862.19;2567947;30;138150;-38
2021/10/18 00:54:57;;;;;;;8.82;5.10;;;7.30;99.90;;;5.50;98.93;101864.78;2571055;30;136863;-38
2021/10/18 00:57:25;;;;;;;8.02;4.60;;;7.20;99.90;;;5.43;98.79;101863.72;2567181;30;138314;-38
2021/10/18 00:59:55;;;;;;;6.53;4.75;;;7.20;99.90;;;5.36;98.61;101870.75;2569685;30;137547;-38
2021/10/18 01:02:23;;;;;;;8.70;4.93;;;7.10;99.90;;;5.30;98.88;101866.78;2568124;30;138566;-38
2021/10/18 01:04:51;;;;;;;8.93;5.03;;;7.00;99.90;;;5.21;98.56;101870.41;2566589;30;137660;-38
2021/10/18 01:07:19;;;;;;;6.35;4.20;;;7.00;99.90;;;5.12;98.41;101872.16;2567457;30;138515;-38
2021/10/18 01:09:47;;;;;;;8.57;4.80;;;6.90;99.90;;;5.03;98.35;101866.63;2569708;30;138311;-38
2021/10/18 01:12:14;;;;;;;8.88;4.97;;;6.80;99.90;;;5.00;98.16;101864.25;2570558;30;138162;-38
2021/10/18 01:14:42;;;;;;;8.38;4.72;;;6.80;99.90;;;4.94;98.53;101872.13;2568746;30;137215;-39
2021/10/18 01:17:10;;;;;;;7.85;4.60;;;6.70;99.90;;;4.88;98.33;101870.84;2569207;30;138369;-38
2021/10/18 01:19:37;;;;;;;6.32;4.70;;;6.60;99.90;;;4.84;98.62;101875.69;2570550;30;136700;-38
2021/10/18 01:22:05;;;;;;;7.55;5.07;;;6.60;99.90;;;4.79;98.89;101887.97;2570045;30;138285;-38
2021/10/18 01:24:35;;;;;;;7.80;4.43;;;6.50;99.90;;;4.77;99.14;101884.53;2571154;30;136802;-38
2021/10/18 01:27:04;;;;;;;5.72;4.03;;;6.50;99.90;;;4.70;98.36;101887.84;2567747;30;137435;-38
2021/10/18 01:29:35;;;;;;;8.27;4.78;;;6.50;99.90;;;4.69;98.98;101890.72;2569683;30;136672;-38
2021/10/18 01:32:06;;;;;;;6.65;4.22;;;6.40;99.90;;;4.64;99.11;101888.44;2569437;30;138424;-38
2021/10/18 01:34:34;;;;;;;6.43;4.20;;;6.40;99.90;;;4.50;98.80;101873.56;2569208;30;136744;-38
2021/10/18 01:37:03;;;;;;;;;;;6.40;99.90;;;4.51;98.55;101885.19;2568996;30;138099;-38
2021/10/18 01:39:33;;;;;;;7.03;4.38;;;6.30;99.90;;;4.44;98.46;101885.78;2568421;30;137298;-38
2021/10/18 01:42:01;;;;;;;7.60;4.10;;;6.20;99.90;;;4.41;98.63;101888.78;2570032;30;138142;-38
2021/10/18 01:44:28;;;;;;;7.28;4.47;;;6.20;99.90;;;4.40;98.80;101887.09;2567159;30;137519;-38
2021/10/18 01:46:56;;;;;;;7.80;4.82;;;6.20;99.90;;;4.38;99.30;101897.19;2569399;30;138501;-38
2021/10/18 01:49:23;;;;;;;8.90;4.88;;;6.10;99.90;;;4.37;99.25;101897.31;2566963;30;138020;-38
2021/10/18 01:51:51;;;;;;;8.18;5.00;;;6.10;99.90;;;4.35;99.52;101897.47;2570683;30;138242;-38
2021/10/18 01:54:19;;;;;;;;;;;6.10;99.90;;;4.32;99.57;101898.63;2572231;30;137766;-37
2021/10/18 01:56:46;;;;;;;6.10;3.88;;;6.10;99.90;;;4.27;99.34;101890.09;2569346;30;137419;-38
2021/10/18 01:59:14;;;;;;;7.20;4.38;;;6.00;99.90;;;4.25;99.00;101891.25;2568998;30;138748;-38
2021/10/18 02:01:41;;;;;;;8.75;4.85;;;6.00;99.90;;;4.24;99.32;101889.53;2569800;30;138809;-38
2021/10/18 02:04:09;;;;;;;8.07;4.85;;;6.00;99.90;;;4.24;99.45;101884.97;2569544;30;137673;-38
2021/10/18 02:06:36;;;;;;;8.00;4.43;;;6.00;99.90;;;4.23;99.43;101883.28;2570331;30;137192;-38
2021/10/18 02:09:04;;;;;;;7.65;4.43;;;6.00;99.90;;;4.20;99.43;101882.69;2572493;30;137394;-38
2021/10/18 02:11:32;;;;;;;6.18;3.95;;;6.00;99.90;;;4.18;99.41;101886.41;2569265;30;138670;-38
2021/10/18 02:14:00;;;;;;;7.15;4.53;;;5.90;99.90;;;4.11;99.18;101877.19;2573456;30;137929;-39
2021/10/18 02:16:27;;;;;;;7.30;4.80;;;5.90;99.90;;;4.20;99.11;101878.16;2567460;30;137824;-39
2021/10/18 02:18:55;;;;;;;6.80;4.35;;;5.90;99.90;;;4.15;98.93;101875.88;2566273;30;137328;-39
2021/10/18 02:21:23;;;;;;;9.60;5.50;;;5.90;99.90;;;4.23;99.55;101879.72;2568086;30;139033;-39
2021/10/18 02:23:51;;;;;;;7.25;4.78;;;5.90;99.90;;;4.26;100.00;101882.16;2568860;30;137526;-39
2021/10/18 02:26:18;;;;;;;8.75;5.68;;;5.90;99.90;;;4.29;100.00;101881.84;2565178;30;137479;-39
2021/10/18 02:28:46;;;;;;;9.15;5.32;;;6.00;99.90;;;4.31;100.00;101877.16;2569553;30;136847;-39
2021/10/18 02:31:14;;;;;;;9.90;5.25;;;6.00;99.90;;;4.31;100.00;101874.47;2567730;30;138235;-40
2021/10/18 02:33:41;;;;;;;10.63;5.90;;;6.00;99.90;;;4.31;100.00;101882.56;2568549;30;137448;-39
2021/10/18 02:36:09;;;;;;;8.25;5.50;;;6.00;99.90;;;4.30;100.00;101878.16;2566546;30;137328;-39
2021/10/18 02:38:38;;;;;;;8.80;5.70;;;6.00;99.90;;;4.30;100.00;101880.84;2567665;30;137408;-39
2021/10/18 02:41:07;;;;;;;7.97;5.55;;;6.00;99.90;;;4.29;100.00;101871.06;2568343;30;138271;-39
2021/10/18 02:43:34;;;;;;;8.82;5.47;;;6.00;99.90;;;4.24;100.00;101854.41;2566945;30;137388;-39
2021/10/18 02:46:02;;;;;;;10.32;5.90;;;6.00;99.90;;;4.35;100.00;101864.19;2568443;30;137594;-40
2021/10/18 02:48:29;;;;;;;10.10;6.50;;;6.10;99.90;;;4.37;100.00;101862.19;2567981;30;138126;-39
2021/10/18 02:50:57;;;;;;;10.43;6.50;;;6.10;99.90;;;4.44;100.00;101863.34;2568102;30;137460;-39
2021/10/18 02:53:25;;;;;;;11.18;6.65;;;6.10;99.90;;;4.54;100.00;101852.50;2568346;30;137272;-39
2021/10/18 02:55:53;;;;;;;11.98;6.72;;;6.20;99.90;;;4.53;100.00;101857.03;2567988;30;138416;-39
2021/10/18 02:58:20;;;;;;;11.48;6.40;;;6.20;99.90;;;4.60;100.00;101863.53;2568222;30;137052;-39
2021/10/18 03:00:48;;;;;;;14.65;6.72;;;6.30;99.90;;;4.64;100.00;101863.25;2568947;30;137253;-39
2021/10/18 03:03:15;;;;;;;14.95;7.82;;;6.30;99.90;;;4.65;100.00;101856.88;2568370;30;137006;-39
2021/10/18 03:05:43;;;;;;;10.02;6.32;;;6.40;99.90;;;4.65;100.00;101859.56;2568343;30;138423;-39
2021/10/18 03:08:10;;;;;;;9.93;6.35;;;6.40;99.90;;;4.64;100.00;101872.22;2568047;30;137420;-39
2021/10/18 03:10:42;;;;;;;10.13;5.90;;;6.40;99.90;;;4.62;100.00;101871.53;2567500;30;137253;-39
2021/10/18 03:13:14;;;;;;;10.80;6.60;;;6.40;99.90;;;4.58;100.00;101865.56;2566376;30;139726;-39
2021/10/18 03:15:44;;;;;;;12.05;6.57;;;6.30;99.90;;;4.57;100.00;101871.13;2567291;30;138007;-39
2021/10/18 03:18:11;;;;;;;11.18;6.38;;;6.30;99.90;;;4.57;100.00;101868.41;2568273;30;137621;-39
2021/10/18 03:20:39;;;;;;;9.77;5.90;;;6.30;99.90;;;4.55;100.00;101867.72;2568323;30;138332;-39
2021/10/18 03:23:06;;;;;;;10.02;6.53;;;6.30;99.90;;;4.56;100.00;101864.00;2568148;30;137622;-39
2021/10/18 03:25:37;;;;;;;12.27;5.72;;;6.30;99.90;;;4.54;100.00;101863.31;2568167;30;139126;-39
2021/10/18 03:28:07;;;;;;;8.90;5.60;;;6.30;99.90;;;4.54;100.00;101864.16;2568370;30;138224;-39
2021/10/18 03:30:35;;;;;;;11.02;6.03;;;6.30;99.90;;;4.54;100.00;101860.59;2567747;30;138406;-39
2021/10/18 03:33:04;;;;;;;10.52;6.03;;;6.20;99.90;;;4.60;100.00;101857.31;2568627;30;136638;-39
2021/10/18 03:35:32;;;;;;;11.98;6.13;;;6.30;99.90;;;4.61;100.00;101864.41;2565204;30;139475;-39
2021/10/18 03:37:59;;;;;;;10.30;6.68;;;6.30;99.90;;;4.64;100.00;101869.53;2569226;30;137505;-40
2021/10/18 03:40:27;;;;;;;9.93;6.13;;;6.30;99.90;;;4.66;100.00;101867.53;2565528;30;137135;-39
2021/10/18 03:42:54;;;;;;;10.63;6.00;;;6.40;99.90;;;4.69;100.00;101866.38;2567533;30;137662;-39
2021/10/18 03:45:22;;;;;;;10.20;5.57;;;6.40;99.90;;;4.70;100.00;101866.22;2566414;30;138815;-39
2021/10/18 03:47:49;;;;;;;8.50;5.90;;;6.40;99.90;;;4.73;100.00;101868.63;2568806;30;137655;-39
2021/10/18 03:50:17;;;;;;;10.18;5.88;;;6.40;99.90;;;4.73;100.00;101863.22;2568295;30;137472;-40
2021/10/18 03:52:45;;;;;;;8.57;5.35;;;6.40;99.90;;;4.79;100.00;101871.75;2567896;30;137296;-39
2021/10/18 03:55:12;;;;;;;10.05;6.32;;;6.50;99.90;;;4.80;100.00;101865.34;2567798;30;138218;-39
2021/10/18 03:57:40;;;;;;;10.82;6.10;;;6.50;99.90;;;4.82;100.00;101869.59;2567621;30;137429;-39
2021/10/18 04:00:09;;;;;;;10.25;6.07;;;6.50;99.90;;;4.79;100.00;101867.19;2568440;30;138168;-40
2021/10/18 04:02:39;;;;;;;10.30;6.80;;;6.50;99.90;;;4.82;100.00;101875.00;2566511;30;136869;-39
2021/10/18 04:05:07;;;;;;;11.02;6.68;;;6.50;99.90;;;4.78;100.00;101870.91;2568218;30;138043;-39
2021/10/18 04:07:38;;;;;;;;;;;6.50;99.90;;;4.85;100.00;101873.88;2567908;30;137476;-39
2021/10/18 04:10:07;;;;;;;13.30;6.32;;;6.60;99.90;;;4.82;100.00;101864.19;2567842;30;139047;-39
2021/10/18 04:12:34;;;;;;;9.70;6.00;;;6.60;99.90;;;4.87;100.00;101883.50;2566460;30;137499;-39
2021/10/18 04:15:04;;;;;;;10.65;5.90;;;6.60;99.90;;;4.86;100.00;101884.50;2568351;30;137187;-39
2021/10/18 04:17:32;;;;;;;10.88;5.70;;;6.60;99.90;;;4.89;100.00;101884.22;2567526;30;137788;-39
2021/10/18 04:19:59;;;;;;;11.40;7.00;;;6.60;99.90;;;4.88;100.00;101882.50;2567648;30;139120;-40
2021/10/18 04:22:27;;;;;;;11.13;6.32;;;6.60;99.90;;;4.88;100.00;101895.19;2567785;30;137378;-39
2021/10/18 04:24:54;;;;;;;11.38;6.63;;;6.60;99.90;;;4.87;100.00;101898.91;2567458;30;139005;-39
2021/10/18 04:27:22;;;;;;;11.52;6.68;;;6.60;99.90;;;4.94;100.00;101899.16;2566927;30;137861;-40
2021/10/18 04:29:51;;;;;;;13.70;6.45;;;6.60;99.90;;;4.90;100.00;101885.06;2568390;30;138166;-40
2021/10/18 04:32:19;;;;;;;9.13;6.22;;;6.60;99.90;;;4.89;100.00;101888.78;2567238;30;137324;-39
2021/10/18 04:34:46;;;;;;;10.70;6.00;;;6.60;99.90;;;4.87;100.00;101888.91;2567493;30;139147;-39
2021/10/18 04:37:13;;;;;;;12.57;6.97;;;6.60;99.90;;;4.91;100.00;101900.31;2567988;30;136968;-39
2021/10/18 04:39:41;;;;;;;12.68;6.93;;;6.60;99.90;;;4.96;100.00;101889.88;2567944;30;138927;-39
2021/10/18 04:42:09;;;;;;;9.77;6.00;;;6.60;99.90;;;4.93;100.00;101890.19;2567867;30;137470;-39
2021/10/18 04:44:37;;;;;;;13.77;6.88;;;6.60;99.90;;;4.94;100.00;101891.88;2564875;30;138769;-39
2021/10/18 04:47:05;;;;;;;12.10;6.57;;;6.60;99.90;;;4.95;100.00;101890.88;2567194;30;136771;-40
2021/10/18 04:49:36;;;;;;;10.32;6.30;;;6.60;99.90;;;4.99;100.00;101894.16;2567812;30;138826;-39
2021/10/18 04:52:04;;;;;;;10.57;6.43;;;6.70;99.90;;;4.97;100.00;101880.78;2567502;30;138536;-39
2021/10/18 04:54:31;;;;;;;10.15;6.07;;;6.60;99.90;;;4.95;100.00;101890.88;2567988;30;137400;-39
2021/10/18 04:56:59;;;;;;;10.82;6.50;;;6.60;99.90;;;4.93;100.00;101894.75;2567712;30;138265;-39
2021/10/18 04:59:27;;;;;;;13.15;6.55;;;6.60;99.90;;;4.94;100.00;101891.88;2564761;30;138548;-39
2021/10/18 05:01:54;;;;;;;10.00;6.43;;;6.60;99.90;;;4.94;100.00;101897.28;2568394;30;137768;-39
2021/10/18 05:04:22;;;;;;;11.73;6.40;;;6.60;99.90;;;4.91;100.00;101894.91;2567425;30;138337;-39
2021/10/18 05:06:49;;;;;;;9.27;6.25;;;6.60;99.90;;;4.95;100.00;101909.81;2566502;30;136801;-39
2021/10/18 05:09:17;;;;;;;16.33;6.85;;;6.60;99.90;;;4.93;100.00;101906.41;2567647;30;138638;-39
2021/10/18 05:11:44;;;;;;;9.95;6.22;;;6.60;99.90;;;4.94;100.00;101913.53;2567695;30;136958;-39
2021/10/18 05:14:12;;;;;;;10.05;6.18;;;6.60;99.90;;;4.92;100.00;101907.41;2568386;30;136897;-40
2021/10/18 05:16:39;;;;;;;12.13;6.32;;;6.60;99.90;;;4.88;100.00;101909.56;2565666;30;138432;-39
2021/10/18 05:19:07;;;;;;;13.13;6.82;;;6.60;99.90;;;4.89;100.00;101910.41;2568144;30;137144;-39
2021/10/18 05:21:34;;;;;;;15.50;6.85;;;6.60;99.90;;;4.89;100.00;101911.25;2567259;30;138559;-39
2021/10/18 05:24:02;;;;;;;11.20;6.30;;;6.60;99.90;;;4.91;100.00;101905.72;2567453;30;138048;-39
2021/10/18 05:26:30;;;;;;;10.20;6.50;;;6.60;99.90;;;4.89;100.00;101905.00;2567801;30;137070;-39
2021/10/18 05:28:57;;;;;;;14.85;7.00;;;6.60;99.90;;;4.90;100.00;101896.72;2568061;30;138185;-39
2021/10/18 05:31:25;;;;;;;10.80;6.55;;;6.60;99.90;;;4.93;100.00;101886.66;2567663;30;137846;-39
2021/10/18 05:33:52;;;;;;;11.18;6.60;;;6.60;99.90;;;4.93;100.00;101900.16;2567277;30;139032;-39
2021/10/18 05:36:20;;;;;;;10.23;6.78;;;6.60;99.90;;;4.95;100.00;101907.13;2566790;30;138599;-39
2021/10/18 05:38:47;;;;;;;12.68;7.35;;;6.60;99.90;;;5.00;100.00;101909.38;2565764;30;138139;-39
2021/10/18 05:41:15;;;;;;;11.68;7.40;;;6.70;99.90;;;5.04;100.00;101919.75;2567580;30;138290;-40
2021/10/18 05:43:43;;;;;;;12.98;6.80;;;6.70;99.90;;;5.09;100.00;101910.34;2565470;30;138290;-39
2021/10/18 05:46:10;;;;;;;10.00;5.95;;;6.80;99.90;;;4.80;100.00;101876.16;2567648;30;136610;-40
2021/10/18 05:48:38;;;;;;;12.30;7.43;;;6.70;99.90;;;5.05;100.00;101917.91;2566776;30;138446;-39
2021/10/18 05:51:05;;;;;;;14.15;7.28;;;6.80;99.90;;;5.08;100.00;101919.47;2567127;30;137497;-39
2021/10/18 05:53:33;;;;;;;12.80;7.10;;;6.80;99.90;;;5.03;100.00;101919.91;2567544;30;138590;-40
2021/10/18 05:56:01;;;;;;;11.65;6.93;;;6.70;99.90;;;5.04;100.00;101916.19;2567343;30;136935;-39
2021/10/18 05:58:28;;;;;;;13.93;8.20;;;6.70;99.90;;;5.04;100.00;101917.06;2567026;30;138315;-40
2021/10/18 06:00:56;;;;;;;10.88;6.53;;;6.70;99.90;;;5.05;100.00;101915.19;2568135;30;137968;-40
2021/10/18 06:03:24;;;;;;;12.70;7.00;;;6.70;99.90;;;5.03;100.00;101907.22;2568554;30;138093;-39
2021/10/18 06:05:53;;;;;;;12.27;7.60;;;6.70;99.90;;;4.98;100.00;101898.69;2566693;30;137452;-39
2021/10/18 06:08:40;;;;;;;11.30;7.05;;;6.70;99.90;;;5.06;100.00;101902.53;2566960;30;138406;-39
2021/10/18 06:11:07;;;;;;;12.32;7.22;;;6.70;99.90;;;5.06;100.00;101897.13;2568482;30;137439;-39
2021/10/18 06:13:35;;;;;;;13.75;6.85;;;6.70;99.90;;;5.08;100.00;101904.06;2567651;30;138402;-39
2021/10/18 06:16:03;;;;;;;12.30;7.40;;;6.70;99.90;;;5.09;100.00;101896.81;2568357;30;137608;-39
2021/10/18 06:18:30;;;;;;;12.65;7.40;;;6.80;99.90;;;5.16;100.00;101906.03;2568448;30;138317;-39
2021/10/18 06:20:58;;;;;;;14.00;7.47;;;6.80;99.90;;;5.21;100.00;101908.28;2568292;30;136707;-39
2021/10/18 06:23:26;;;;;;;11.77;7.18;;;6.80;99.90;;;5.21;100.00;101909.13;2567004;30;138346;-40
2021/10/18 06:25:53;;;;;;;13.68;7.85;;;6.80;99.90;;;5.24;100.00;101914.25;2569071;30;137800;-40
2021/10/18 06:28:21;;;;;;;12.90;7.88;;;6.90;99.90;;;5.38;99.78;101906.63;2568641;30;137169;-39
2021/10/18 06:30:49;;;;;;;;;;;7.00;99.90;;;5.33;99.66;101909.78;2567391;30;136950;-40
2021/10/18 06:33:20;;;;;;;12.73;7.13;;;7.00;99.90;;;5.40;100.00;101919.00;2567525;30;137904;-39
2021/10/18 06:35:48;;;;;;;12.77;7.82;;;7.00;99.90;;;5.45;99.93;101921.25;2568711;30;136788;-39
2021/10/18 06:38:21;;;;;;;11.63;7.40;;;7.10;99.90;;;5.53;99.42;101928.63;2568463;30;137576;-39
2021/10/18 06:40:52;;;;;;;12.20;7.40;;;7.10;99.90;;;5.55;99.06;101921.19;2566198;30;137590;-39
2021/10/18 06:43:20;;;;;;;;;;;7.20;99.90;;;5.66;99.08;101928.25;2568554;30;137062;-39
2021/10/18 06:45:48;;;;;;;11.75;7.57;;;7.20;99.90;;;5.72;98.47;101938.47;2568086;30;136631;-39
2021/10/18 06:48:15;;;;;;;12.57;7.07;;;7.30;99.90;;;5.77;98.11;101933.44;2566690;30;137747;-39
2021/10/18 06:50:46;;;;;;;13.68;7.90;;;7.30;99.90;;;5.85;97.95;101935.38;2567107;30;137683;-39
2021/10/18 06:53:19;;;;;;;13.40;7.35;;;7.40;99.90;;;5.88;98.24;101932.38;2567870;30;137474;-39
2021/10/18 06:55:47;;;;;;;11.85;7.10;;;7.40;99.90;;;6.00;97.50;101936.56;2566537;30;137843;-39
2021/10/18 06:58:14;;;;;;;12.75;7.38;;;7.50;99.90;;;6.09;96.41;101942.09;2567031;30;138953;-39
2021/10/18 07:00:42;;;;;;;16.17;8.05;;;7.60;99.90;;;6.13;96.63;101941.63;2568105;30;137659;-39
2021/10/18 07:03:09;;;;;;;12.40;7.30;;;7.70;99.90;;;6.18;96.08;101950.13;2567811;30;137434;-40
2021/10/18 07:05:37;;;;;;;12.10;7.70;;;7.70;99.90;;;6.26;96.37;101956.63;2567578;30;138389;-39
2021/10/18 07:08:05;;;;;;;12.48;6.78;;;7.80;99.90;;;6.29;95.73;101946.34;2568276;30;137331;-40
2021/10/18 07:10:32;;;;;;;11.30;6.68;;;7.80;99.90;;;6.36;95.61;101949.25;2567465;30;137051;-39
2021/10/18 07:13:03;;;;;;;12.38;7.50;;;7.90;99.90;;;6.44;95.10;101946.63;2568530;30;139380;-39
2021/10/18 07:15:31;;;;;;;11.68;6.78;;;8.00;99.90;;;6.52;95.27;101950.41;2568898;30;137679;-40
2021/10/18 07:17:59;;;;;;;14.40;7.30;;;8.00;99.90;;;6.61;95.01;101939.44;2568019;30;138109;-40
2021/10/18 07:20:26;;;;;;;9.68;6.90;;;8.10;99.90;;;6.76;94.12;101938.84;2566250;30;137723;-40
2021/10/18 07:22:58;;;;;;;14.32;7.47;;;8.20;99.90;;;6.79;93.63;101940.41;2567972;30;138542;-39
2021/10/18 07:25:26;;;;;;;12.50;7.50;;;8.20;99.90;;;6.81;93.75;101935.66;2567276;30;138352;-40
2021/10/18 07:27:54;;;;;;;12.35;7.90;;;8.30;99.90;;;6.93;93.83;101934.41;2567803;30;138329;-40
2021/10/18 07:30:22;;;;;;;15.30;7.97;;;8.40;99.90;;;7.08;93.20;101933.78;2565579;30;137661;-40
2021/10/18 07:32:49;;;;;;;11.68;7.43;;;8.50;99.90;;;7.21;93.46;101939.63;2567383;30;137704;-40
2021/10/18 07:35:20;;;;;;;13.48;8.43;;;8.60;99.90;;;7.37;92.53;101946.13;2566493;30;139163;-40
2021/10/18 07:37:54;;;;;;;11.77;7.72;;;8.70;99.90;;;7.49;92.45;101939.38;2566852;30;138521;-39
2021/10/18 07:40:23;;;;;;;13.73;8.32;;;8.80;99.90;;;7.57;91.50;101933.97;2568481;30;137407;-40
2021/10/18 07:42:51;;;;;;;14.50;7.85;;;9.00;99.90;;;7.73;91.41;101932.31;2567748;30;138427;-40
2021/10/18 07:45:19;;;;;;;;;;;9.10;99.90;;;7.81;89.70;101932.34;2568589;30;137046;-40
2021/10/18 07:47:48;;;;;;;14.93;7.80;;;9.20;99.90;;;7.87;90.12;101931.66;2569358;30;138360;-40
2021/10/18 07:50:16;;;;;;;13.65;7.90;;;9.20;99.90;;;7.91;90.52;101924.88;2568004;30;137582;-39
2021/10/18 07:52:45;;;;;;;12.57;7.80;;;9.30;99.90;;;8.00;89.80;101939.31;2567798;30;138417;-40
2021/10/18 07:55:15;;;;;;;13.73;7.53;;;9.40;99.90;;;8.08;89.94;101949.34;2567943;30;138065;-40
2021/10/18 07:57:50;;;;;;;15.43;7.70;;;9.40;99.90;;;8.18;89.73;101950.03;2566782;30;137453;-40
2021/10/18 08:00:18;;;;;;;13.73;8.23;;;9.50;99.90;;;8.28;89.05;101944.44;2567181;30;136857;-40
2021/10/18 08:02:46;;;;;;;13.10;8.02;;;9.60;99.90;;;8.38;88.29;101949.69;2567953;30;137454;-40
2021/10/18 08:05:16;;;;;;;12.55;7.65;;;9.70;99.90;;;8.42;87.82;101942.91;2566937;30;137533;-40
2021/10/18 08:07:50;;;;;;;12.73;8.15;;;9.80;99.90;;;8.49;87.89;101949.41;2567656;30;137255;-40
2021/10/18 08:10:26;;;;;;;13.10;7.15;;;9.90;99.90;;;8.69;87.79;101959.06;2568642;30;137577;-40
2021/10/18 08:12:56;;;;;;;15.65;7.90;;;10.00;99.90;;;8.80;87.44;101950.53;2568057;30;137528;-40
2021/10/18 08:15:27;;;;;;;14.07;8.15;;;10.10;99.90;;;8.91;87.52;101949.31;2574287;30;136988;-39
2021/10/18 08:17:55;;;;;;;13.18;7.63;;;10.20;99.90;;;9.01;87.31;101951.84;2569342;30;137294;-38
2021/10/18 08:20:23;;;;;;;13.15;7.57;;;10.30;99.90;;;9.13;86.63;101942.28;2569126;30;137022;-39
2021/10/18 08:22:51;;;;;;;14.57;7.50;;;10.40;99.90;;;9.24;86.31;101951.94;2566878;30;138829;-38
2021/10/18 08:25:19;;;;;;;10.80;7.45;;;10.50;99.90;;;9.33;85.13;101959.06;2569014;30;136911;-39
2021/10/18 08:27:48;;;;;;;12.55;7.80;;;10.60;99.90;;;9.41;85.21;101949.16;2569001;30;138454;-38
2021/10/18 08:30:16;;;;;;;10.80;7.30;;;10.70;99.90;;;9.53;84.97;101950.44;2568670;30;136636;-38
2021/10/18 08:32:44;;;;;;;12.98;7.70;;;10.80;99.90;;;9.63;83.60;101952.97;2569788;30;137144;-38
2021/10/18 08:35:12;;;;;;;;;;;10.90;99.90;;;9.71;83.90;101946.63;2566849;30;137509;-38
2021/10/18 08:40:35;;;;;;;14.57;7.70;;;11.10;99.90;;;9.73;81.75;101948.16;2567860;30;138168;-39
2021/10/18 08:43:19;;;;;;;12.88;7.18;;;11.10;99.90;;;9.75;82.86;101943.38;2568778;30;138065;-38
2021/10/18 08:45:47;;;;;;;15.05;7.95;;;11.10;99.90;;;9.81;81.78;101947.22;2566266;30;138442;-38
2021/10/18 08:48:15;;;;;;;14.32;7.50;;;11.20;99.90;;;9.86;81.73;101947.56;2570205;30;137656;-38
2021/10/18 08:50:43;;;;;;;14.07;8.40;;;11.20;99.90;;;9.91;82.68;101944.28;2569652;30;138452;-38
2021/10/18 08:53:11;;;;;;;12.82;8.10;;;11.20;99.90;;;9.87;82.49;101954.72;2567357;30;138712;-38
2021/10/18 08:55:40;;;;;;;;;;;11.20;99.90;;;9.88;82.12;101953.69;2568953;30;138619;-39
2021/10/18 08:58:08;;;;;;;12.43;7.37;;;11.30;99.90;;;9.98;82.37;101945.25;2569121;30;136606;-38
2021/10/18 09:00:51;;;;;;;14.90;8.27;;;11.30;99.90;;;10.12;83.01;101945.50;2569870;30;137588;-39
2021/10/18 09:03:31;;;;;;;14.50;7.78;;;11.40;99.90;;;10.31;81.33;101946.88;2569486;30;138146;-38
2021/10/18 09:06:16;;;;;;;12.63;7.95;;;11.50;99.90;;;10.41;81.02;101942.06;2567174;30;137065;-38
2021/10/18 09:08:50;;;;;;;12.95;8.20;;;11.60;99.90;;;10.48;80.49;101940.28;2567305;30;138549;-38
2021/10/18 09:11:27;;;;;;;15.10;8.30;;;11.80;99.90;;;10.54;80.01;101935.13;2568455;30;137481;-39
2021/10/18 09:13:59;;;;;;;13.15;7.53;;;11.80;99.90;;;10.64;80.05;101944.72;2569419;30;139052;-38
2021/10/18 09:16:40;;;;;;;13.20;8.18;;;11.90;99.90;;;10.67;79.56;101939.94;2568070;30;137415;-39
2021/10/18 09:19:10;;;;;;;15.15;8.23;;;11.90;99.90;;;10.62;79.11;101937.78;2568289;30;138524;-38
2021/10/18 09:21:46;;;;;;;13.55;8.18;;;11.90;99.90;;;10.58;78.95;101939.16;2569512;30;138015;-38
2021/10/18 09:24:34;;;;;;;15.35;8.02;;;12.00;99.90;;;10.69;79.43;101941.47;2567567;30;138428;-38
2021/10/18 09:27:10;;;;;;;16.00;8.50;;;12.00;99.90;;;10.83;80.65;101942.50;2570049;30;137376;-38
2021/10/18 09:29:48;;;;;;;15.30;8.05;;;12.10;99.90;;;10.98;79.36;101950.72;2567508;30;138428;-38
2021/10/18 09:32:30;;;;;;;14.50;8.45;;;12.20;99.90;;;11.06;78.24;101955.22;2565928;30;138382;-38
2021/10/18 09:35:17;;;;;;;15.57;8.68;;;12.30;99.90;;;11.23;78.35;101955.88;2569332;30;139168;-39
2021/10/18 09:37:45;;;;;;;15.07;8.75;;;12.40;99.90;;;11.41;78.97;101952.75;2570920;30;136790;-38
2021/10/18 09:40:34;;;;;;;16.67;8.68;;;12.50;99.90;;;11.40;76.38;101948.31;2569495;30;137281;-38
2021/10/18 09:43:31;;;;;;;13.38;8.30;;;12.60;99.90;;;11.45;76.62;101950.50;2567001;30;137089;-38
2021/10/18 09:46:18;;;;;;;14.80;8.57;;;12.70;99.90;;;11.54;78.38;101954.81;2569479;30;137648;-39
2021/10/18 10:54:02;;;;;;;11.95;7.82;;;14.20;99.90;;;12.90;72.07;101911.22;2569483;30;138662;-38
2021/10/18 10:56:45;;;;;;;13.82;7.22;;;14.20;99.90;;;12.87;71.68;101925.34;2568667;30;136806;-38
2021/10/18 10:59:25;;;;;;;14.10;7.85;;;14.20;99.90;;;12.97;71.17;101928.53;2567769;30;138613;-39
2021/10/18 11:02:09;;;;;;;12.38;7.15;;;14.20;99.90;;;13.07;69.92;101906.28;2569071;30;137014;-38
2021/10/18 11:04:43;;;;;;;12.75;7.47;;;14.30;99.90;;;13.26;70.46;101899.22;2569885;30;138204;-38
2021/10/18 11:07:39;;;;;;;13.15;7.25;;;14.40;99.90;;;13.40;70.84;101904.72;2568751;30;136895;-37
2021/10/18 11:10:07;;;;;;;14.23;8.82;;;14.50;99.90;;;13.38;69.05;101891.22;2566926;30;138419;-37
2021/10/18 11:12:41;;;;;;;13.70;7.68;;;14.60;99.90;;;13.53;69.30;101899.34;2566723;30;137620;-38
2021/10/18 11:15:16;;;;;;;13.68;8.25;;;14.70;99.90;;;13.66;70.64;101893.88;2568788;30;138184;-39
2021/10/18 11:17:53;;;;;;;12.02;7.15;;;14.80;99.90;;;13.74;67.75;101890.09;2568672;30;138367;-37
2021/10/18 11:20:27;;;;;;;13.07;8.98;;;14.90;99.90;;;13.88;68.21;101890.97;2568968;30;138013;-39
2021/10/18 11:22:59;;;;;;;14.20;7.10;;;15.00;99.90;;;13.94;66.55;101876.41;2568664;30;138933;-38
2021/10/18 11:25:36;;;;;;;9.63;6.70;;;15.10;99.90;;;14.04;68.86;101878.75;2567752;30;138524;-38
2021/10/18 11:28:09;;;;;;;10.63;6.70;;;15.20;99.90;;;14.08;67.27;101880.00;2569535;30;137382;-39
2021/10/18 11:30:39;;;;;;;12.20;6.97;;;15.20;99.90;;;14.20;68.86;101882.97;2571207;30;136844;-39